Terminal Aerodrome Forecast
Issued by NWS Cleveland, OH

Home | Current Version | Previous Version | Text Only | Print | Product List | Glossary On
Versions: 1 2 3 4 5 6 7 8 9 10 11 12 13 14
000
FTUS41 KCLE 121100
TAFCAK
TAF
KCAK 121134Z 1212/1312 18004KT P6SM BKN120
     FM121500 22008KT P6SM FEW050 SCT120
     FM130400 19006KT P6SM VCSH BKN070 OVC120
     FM130800 20008KT 6SM -SHRA BR BKN045
     FM131000 20012KT 4SM -SHRA VCTS BKN035CB=

USA.gov is the U.S. government's official web portal to all federal, state and local government web resources and services.